CAS5 weather

Public forecast

Using degrees Celsius for public forecast. Weather courtesy of forecast.io.

Closest aviation weather report (METAR) to Aerosmith Heli Service Heliport

Closest report is Nanaimo Airport, 26.2 nm (48.5 km) SE. Retrieved 2020/08/14 14:00 UTC (24 minutes ago):

CYCD 141400Z VRB03KT 20SM FEW210 12/10 A3022 RMK CI1 SLP234

Closest aviation forecast (TAF) to Aerosmith Heli Service Heliport

Closest forecast is Nanaimo Airport, 26.2 nm (48.5 km) SE. Retrieved 2020/08/14 15:42 UTC (0 seconds ago):

TAF CYCD 141438Z 1415/1503 VRB03KT P6SM FEW200 BECMG 1417/1419 08006KT RMK NXT FCST BY 141800Z